createdAt,value
2023-05-21T00:01:48.639Z,11.57
2023-05-21T00:04:18.017Z,11.63
2023-05-21T00:06:46.151Z,10.98
2023-05-21T00:09:14.322Z,10.70
2023-05-21T00:11:47.276Z,9.52
2023-05-21T00:14:15.590Z,8.95
2023-05-21T00:16:45.246Z,8.43
2023-05-21T00:19:13.186Z,8.60
2023-05-21T00:21:42.702Z,8.13
2023-05-21T00:24:11.784Z,8.00
2023-05-21T00:26:39.800Z,8.43
2023-05-21T00:29:07.906Z,7.93
2023-05-21T00:31:36.056Z,7.47
2023-05-21T00:34:04.079Z,7.63
2023-05-21T00:36:31.986Z,7.10
2023-05-21T00:39:06.034Z,7.82
2023-05-21T00:41:35.621Z,7.47
2023-05-21T00:44:03.925Z,7.75
2023-05-21T00:46:32.049Z,7.60
2023-05-21T00:49:02.422Z,7.75
2023-05-21T00:51:30.647Z,7.13
2023-05-21T00:54:00.169Z,7.63
2023-05-21T00:56:29.733Z,8.18
2023-05-21T00:58:58.746Z,7.85
2023-05-21T01:01:26.991Z,7.45
2023-05-21T01:03:57.836Z,7.88
2023-05-21T01:06:25.841Z,7.70
2023-05-21T01:08:53.599Z,7.47
2023-05-21T01:11:22.041Z,7.55
2023-05-21T01:13:52.414Z,7.70
2023-05-21T01:16:21.436Z,7.85
2023-05-21T01:18:50.175Z,7.40
2023-05-21T01:21:19.603Z,7.63
2023-05-21T01:23:49.081Z,7.50
2023-05-21T01:26:16.975Z,7.80
2023-05-21T01:28:44.916Z,8.07
2023-05-21T01:31:24.017Z,7.67
2023-05-21T01:33:57.618Z,8.27
2023-05-21T01:36:31.104Z,7.38
2023-05-21T01:39:08.659Z,8.02
2023-05-21T01:41:41.831Z,7.65
2023-05-21T01:44:11.187Z,7.83
2023-05-21T01:46:39.580Z,7.78
2023-05-21T01:49:09.269Z,8.35
2023-05-21T01:51:37.682Z,8.30
2023-05-21T01:54:07.135Z,8.27
2023-05-21T01:56:37.196Z,8.40
2023-05-21T01:59:05.404Z,8.48
2023-05-21T02:01:33.583Z,8.32
2023-05-21T02:04:01.913Z,7.75
2023-05-21T02:06:31.936Z,8.60
2023-05-21T02:08:59.803Z,8.97
2023-05-21T02:11:29.233Z,8.02
2023-05-21T02:13:58.303Z,8.63
2023-05-21T02:16:26.862Z,8.68
2023-05-21T02:18:57.702Z,8.57
2023-05-21T02:21:25.870Z,8.57
2023-05-21T02:23:53.852Z,8.82
2023-05-21T02:26:22.764Z,8.68
2023-05-21T02:28:53.281Z,8.63
2023-05-21T02:31:21.160Z,8.60
2023-05-21T02:33:49.070Z,8.53
2023-05-21T02:36:19.230Z,9.27
2023-05-21T02:38:47.777Z,8.98
2023-05-21T02:41:15.744Z,7.80
2023-05-21T02:43:44.109Z,9.02
2023-05-21T02:46:13.722Z,8.73
2023-05-21T02:48:41.857Z,8.77
2023-05-21T02:51:09.762Z,8.93
2023-05-21T02:53:37.833Z,8.68
2023-05-21T02:56:06.375Z,9.13
2023-05-21T02:58:34.225Z,8.47
2023-05-21T03:01:01.911Z,9.13
2023-05-21T03:03:32.604Z,9.77
2023-05-21T03:06:01.034Z,8.63
2023-05-21T03:08:29.283Z,9.23
2023-05-21T03:10:57.356Z,9.33
2023-05-21T03:13:25.438Z,9.13
2023-05-21T03:15:56.606Z,8.18
2023-05-21T03:18:24.758Z,9.45
2023-05-21T03:20:54.172Z,9.02
2023-05-21T03:23:22.026Z,8.70
2023-05-21T03:25:50.952Z,9.07
2023-05-21T03:28:19.390Z,8.93
2023-05-21T03:30:50.105Z,9.75
2023-05-21T03:33:18.508Z,9.40
2023-05-21T03:35:46.162Z,9.07
2023-05-21T03:38:15.781Z,9.63
2023-05-21T03:40:43.657Z,9.75
2023-05-21T03:43:11.502Z,8.48
2023-05-21T03:45:41.541Z,9.88
2023-05-21T03:48:11.202Z,9.57
2023-05-21T03:50:38.879Z,8.38
2023-05-21T03:53:06.862Z,9.55
2023-05-21T03:55:36.463Z,9.35
2023-05-21T03:58:04.823Z,9.80
2023-05-21T04:00:34.545Z,9.90
2023-05-21T04:03:02.406Z,9.35
2023-05-21T04:05:30.207Z,9.32
2023-05-21T04:07:58.957Z,8.68
2023-05-21T04:10:27.159Z,9.98
2023-05-21T04:12:56.560Z,9.67
2023-05-21T04:15:25.658Z,9.55
2023-05-21T04:17:55.100Z,9.32
2023-05-21T04:20:23.087Z,9.38
2023-05-21T04:22:51.768Z,9.32
2023-05-21T04:25:20.500Z,9.57
2023-05-21T04:27:48.712Z,9.40
2023-05-21T04:30:20.244Z,9.18
2023-05-21T04:32:48.493Z,9.50
2023-05-21T04:35:16.514Z,9.05
2023-05-21T04:37:46.025Z,9.57
2023-05-21T04:40:18.799Z,9.10
2023-05-21T04:42:48.439Z,10.07
2023-05-21T04:45:17.630Z,8.85
2023-05-21T04:47:48.493Z,9.45
2023-05-21T04:50:16.775Z,9.37
2023-05-21T04:52:45.705Z,10.15
2023-05-21T04:55:13.825Z,9.20
2023-05-21T04:57:41.489Z,9.38
2023-05-21T05:00:10.597Z,10.43
2023-05-21T05:02:38.599Z,9.27
2023-05-21T05:05:08.593Z,9.38
2023-05-21T05:07:37.144Z,9.50
2023-05-21T05:10:07.284Z,8.93
2023-05-21T05:12:35.229Z,8.85
2023-05-21T05:15:03.170Z,9.13
2023-05-21T05:17:31.427Z,9.57
2023-05-21T05:19:59.579Z,9.52
2023-05-21T05:22:28.704Z,8.90
2023-05-21T05:24:56.823Z,9.35
2023-05-21T05:27:24.914Z,9.17
2023-05-21T05:29:53.031Z,9.25
2023-05-21T05:32:21.027Z,8.68
2023-05-21T05:34:49.150Z,8.93
2023-05-21T05:37:17.214Z,8.90
2023-05-21T05:39:46.772Z,9.30
2023-05-21T05:42:14.441Z,9.55
2023-05-21T05:44:42.252Z,10.68
2023-05-21T05:47:10.935Z,10.00
2023-05-21T05:49:38.909Z,9.48
2023-05-21T05:52:07.700Z,9.60
2023-05-21T05:54:35.769Z,10.07
2023-05-21T05:57:05.564Z,8.85
2023-05-21T05:59:34.861Z,9.27
2023-05-21T06:02:03.228Z,8.65
2023-05-21T06:04:31.165Z,8.93
2023-05-21T06:06:59.818Z,8.95
2023-05-21T06:09:28.611Z,9.63
2023-05-21T06:11:56.642Z,9.20
2023-05-21T06:14:26.012Z,9.63
2023-05-21T06:16:54.112Z,9.23
2023-05-21T06:19:22.204Z,9.13
2023-05-21T06:21:50.277Z,9.55
2023-05-21T06:24:18.601Z,10.20
2023-05-21T06:26:46.501Z,10.02
2023-05-21T06:29:15.497Z,8.47
2023-05-21T06:31:45.589Z,8.93
2023-05-21T06:34:13.621Z,9.05
2023-05-21T06:36:42.066Z,9.05
2023-05-21T06:39:10.518Z,9.27
2023-05-21T06:41:38.478Z,9.40
2023-05-21T06:44:07.391Z,9.75
2023-05-21T06:46:35.924Z,9.55
2023-05-21T06:49:07.044Z,9.20
2023-05-21T06:51:35.201Z,9.27
2023-05-21T06:54:03.127Z,9.23
2023-05-21T06:56:44.553Z,9.88
2023-05-21T06:59:12.546Z,9.50
2023-05-21T07:01:44.196Z,8.77
2023-05-21T07:04:13.829Z,9.20
2023-05-21T07:06:42.165Z,8.83
2023-05-21T07:09:10.511Z,8.60
2023-05-21T07:11:38.989Z,9.02
2023-05-21T07:14:07.083Z,8.90
2023-05-21T07:16:35.156Z,8.93
2023-05-21T07:19:03.608Z,8.67
2023-05-21T07:21:32.714Z,8.68
2023-05-21T07:24:00.944Z,8.52
2023-05-21T07:26:29.232Z,8.63
2023-05-21T07:28:59.762Z,8.55
2023-05-21T07:31:27.953Z,8.87
2023-05-21T07:33:55.886Z,8.57
2023-05-21T07:36:24.313Z,9.13
2023-05-21T07:38:53.857Z,8.25
2023-05-21T07:41:22.061Z,8.48
2023-05-21T07:43:50.568Z,8.80
2023-05-21T07:46:18.568Z,8.45
2023-05-21T07:48:48.535Z,8.23
2023-05-21T07:51:16.831Z,8.23
2023-05-21T07:53:44.697Z,7.88
2023-05-21T07:56:13.961Z,7.50
2023-05-21T07:58:44.173Z,7.70
2023-05-21T08:01:12.574Z,8.30
2023-05-21T08:03:40.625Z,7.93
2023-05-21T08:06:08.625Z,7.38
2023-05-21T08:08:36.530Z,7.90
2023-05-21T08:11:04.654Z,7.78
2023-05-21T08:13:33.953Z,7.95
2023-05-21T08:16:01.914Z,8.43
2023-05-21T08:18:30.173Z,7.22
2023-05-21T08:20:57.818Z,7.90
2023-05-21T08:23:28.220Z,7.22
2023-05-21T08:25:56.607Z,6.82
2023-05-21T08:28:24.732Z,7.15
2023-05-21T08:30:53.992Z,6.70
2023-05-21T08:33:21.956Z,7.17
2023-05-21T08:35:49.785Z,7.43
2023-05-21T08:38:17.731Z,7.18
2023-05-21T08:40:48.090Z,7.35
2023-05-21T08:43:17.840Z,7.47
2023-05-21T08:45:47.096Z,7.07
2023-05-21T08:48:17.960Z,6.82
2023-05-21T08:50:48.323Z,6.60
2023-05-21T08:53:27.508Z,6.55
2023-05-21T08:55:57.403Z,7.85
2023-05-21T08:58:28.852Z,7.80
2023-05-21T09:00:57.539Z,7.70
2023-05-21T09:03:27.418Z,7.60
2023-05-21T09:05:56.586Z,7.95
2023-05-21T09:08:31.062Z,8.52
2023-05-21T09:10:59.028Z,8.13
2023-05-21T09:13:28.254Z,8.35
2023-05-21T09:15:56.556Z,7.82
2023-05-21T09:18:27.588Z,9.38
2023-05-21T09:20:56.989Z,7.95
2023-05-21T09:23:25.056Z,7.80
2023-05-21T09:25:52.934Z,8.35
2023-05-21T09:28:21.155Z,8.13
2023-05-21T09:30:50.134Z,7.50
2023-05-21T09:33:29.805Z,7.07
2023-05-21T09:35:58.569Z,6.30
2023-05-21T09:38:27.108Z,6.80
2023-05-21T09:40:57.237Z,6.50
2023-05-21T09:43:25.206Z,6.63
2023-05-21T09:45:54.004Z,6.07
2023-05-21T09:48:37.748Z,6.10
2023-05-21T09:51:10.929Z,6.60
2023-05-21T09:53:43.678Z,6.82
2023-05-21T09:56:11.860Z,6.47
2023-05-21T09:58:40.624Z,6.03
2023-05-21T10:01:10.185Z,6.30
2023-05-21T10:03:42.121Z,6.05
2023-05-21T10:06:11.677Z,6.25
2023-05-21T10:08:46.498Z,5.85
2023-05-21T10:11:17.033Z,6.47
2023-05-21T10:13:50.262Z,6.63
2023-05-21T10:16:22.122Z,6.55
2023-05-21T10:18:54.339Z,7.15
2023-05-21T10:21:24.124Z,8.18
2023-05-21T10:23:52.536Z,6.10
2023-05-21T10:26:21.667Z,5.77
2023-05-21T10:28:51.422Z,5.70
2023-05-21T10:31:20.120Z,5.93
2023-05-21T10:33:52.908Z,5.18
2023-05-21T10:36:21.881Z,5.85
2023-05-21T10:38:50.339Z,5.90
2023-05-21T10:41:22.349Z,5.80
2023-05-21T10:43:57.953Z,5.30
2023-05-21T10:46:47.166Z,5.10
2023-05-21T10:49:29.426Z,5.50
2023-05-21T10:52:05.845Z,4.80
2023-05-21T10:54:58.462Z,4.88
2023-05-21T10:57:46.212Z,5.13
2023-05-21T11:00:18.476Z,6.18
2023-05-21T11:02:47.218Z,5.68
2023-05-21T11:05:16.846Z,4.93
2023-05-21T11:07:58.137Z,5.70
2023-05-21T11:10:33.917Z,5.75
2023-05-21T11:13:17.596Z,5.55
2023-05-21T11:16:15.764Z,5.32
2023-05-21T11:19:04.035Z,5.20
2023-05-21T11:21:36.261Z,4.93
2023-05-21T11:24:12.146Z,5.65
2023-05-21T11:27:05.669Z,5.13
2023-05-21T11:29:56.668Z,5.43
2023-05-21T11:32:25.055Z,5.00
2023-05-21T11:34:53.141Z,5.05
2023-05-21T11:37:42.011Z,5.22
2023-05-21T11:40:27.691Z,5.97
2023-05-21T11:42:56.765Z,5.75
2023-05-21T11:45:29.648Z,5.33
2023-05-21T11:47:58.860Z,5.65
2023-05-21T11:50:27.624Z,5.10
2023-05-21T11:52:57.974Z,4.95
2023-05-21T11:55:28.147Z,4.85
2023-05-21T11:57:56.593Z,4.70
2023-05-21T12:00:24.644Z,4.82
2023-05-21T12:02:56.319Z,5.35
2023-05-21T12:05:25.303Z,5.60
2023-05-21T12:07:56.933Z,5.32
2023-05-21T12:10:30.192Z,5.20
2023-05-21T12:12:58.303Z,5.45
2023-05-21T12:15:30.020Z,5.07
2023-05-21T12:17:58.127Z,5.22
2023-05-21T12:20:30.461Z,5.55
2023-05-21T12:23:00.779Z,5.33
2023-05-21T12:25:32.065Z,4.82
2023-05-21T12:28:02.096Z,5.70
2023-05-21T12:30:29.960Z,5.38
2023-05-21T12:33:02.428Z,4.78
2023-05-21T12:35:32.047Z,5.03
2023-05-21T12:38:03.856Z,4.97
2023-05-21T12:40:40.235Z,5.40
2023-05-21T12:43:08.928Z,4.85
2023-05-21T12:45:39.344Z,5.30
2023-05-21T12:48:07.822Z,5.40
2023-05-21T12:50:36.589Z,5.25
2023-05-21T12:53:04.661Z,5.30
2023-05-21T12:55:33.050Z,5.07
2023-05-21T12:58:09.302Z,5.63
2023-05-21T13:00:40.493Z,5.10
2023-05-21T13:03:08.876Z,5.38
2023-05-21T13:05:36.731Z,4.93
2023-05-21T13:08:04.532Z,5.70
2023-05-21T13:10:32.665Z,4.90
2023-05-21T13:13:00.836Z,5.17
2023-05-21T13:15:31.784Z,5.25
2023-05-21T13:18:02.013Z,4.60
2023-05-21T13:20:32.869Z,5.10
2023-05-21T13:23:03.508Z,5.03
2023-05-21T13:25:34.103Z,4.97
2023-05-21T13:28:07.112Z,5.22
2023-05-21T13:30:36.825Z,4.80
2023-05-21T13:33:07.629Z,5.30
2023-05-21T13:35:35.888Z,4.93
2023-05-21T13:38:03.992Z,5.60
2023-05-21T13:40:32.620Z,4.78
2023-05-21T13:43:01.095Z,5.00
2023-05-21T13:45:30.225Z,4.95
2023-05-21T13:48:01.486Z,4.95
2023-05-21T13:50:29.297Z,4.97
2023-05-21T13:52:59.427Z,5.10
2023-05-21T13:55:29.087Z,5.25
2023-05-21T13:57:58.719Z,6.22
2023-05-21T14:00:26.398Z,5.47
2023-05-21T14:02:54.485Z,5.20
2023-05-21T14:05:25.300Z,4.95
2023-05-21T14:07:53.072Z,5.55
2023-05-21T14:10:25.812Z,5.03
2023-05-21T14:13:04.243Z,4.88
2023-05-21T14:15:42.935Z,5.27
2023-05-21T14:18:12.486Z,5.50
2023-05-21T14:20:41.901Z,4.93
2023-05-21T14:23:11.729Z,5.07
2023-05-21T14:25:39.342Z,5.10
2023-05-21T14:28:07.621Z,4.53
2023-05-21T14:30:35.678Z,4.90
2023-05-21T14:33:04.138Z,5.30
2023-05-21T14:35:31.830Z,5.03
2023-05-21T14:38:00.975Z,5.15
2023-05-21T14:40:30.356Z,4.73
2023-05-21T14:42:58.134Z,4.88
2023-05-21T14:45:25.927Z,4.90
2023-05-21T14:47:56.350Z,4.53
2023-05-21T14:50:24.701Z,5.10
2023-05-21T14:52:52.604Z,4.53
2023-05-21T14:55:22.391Z,4.80
2023-05-21T14:57:50.512Z,5.03
2023-05-21T15:00:18.349Z,5.32
2023-05-21T15:02:46.564Z,4.95
2023-05-21T15:05:14.682Z,5.20
2023-05-21T15:07:43.545Z,4.57
2023-05-21T15:10:11.963Z,5.20
2023-05-21T15:12:42.378Z,4.78
2023-05-21T15:15:13.458Z,4.40
2023-05-21T15:17:43.204Z,4.90
2023-05-21T15:20:11.525Z,5.30
2023-05-21T15:22:42.309Z,4.57
2023-05-21T15:25:11.831Z,4.43
2023-05-21T15:27:41.011Z,4.45
2023-05-21T15:30:09.679Z,4.80
2023-05-21T15:32:37.853Z,5.13
2023-05-21T15:35:06.526Z,5.25
2023-05-21T15:37:34.406Z,5.03
2023-05-21T15:40:02.991Z,5.05
2023-05-21T15:42:31.936Z,4.93
2023-05-21T15:45:01.375Z,4.93
2023-05-21T15:47:29.565Z,5.65
2023-05-21T15:49:58.943Z,4.60
2023-05-21T15:52:26.931Z,5.30
2023-05-21T15:54:55.324Z,5.00
2023-05-21T15:57:23.233Z,5.20
2023-05-21T15:59:52.521Z,5.13
2023-05-21T16:02:21.991Z,4.28
2023-05-21T16:04:51.754Z,5.40
2023-05-21T16:07:19.996Z,4.07
2023-05-21T16:09:48.408Z,4.85
2023-05-21T16:12:16.544Z,4.65
2023-05-21T16:14:44.622Z,4.85
2023-05-21T16:17:13.249Z,4.57
2023-05-21T16:19:45.399Z,4.60
2023-05-21T16:22:13.946Z,4.38
2023-05-21T16:24:41.751Z,4.60
2023-05-21T16:27:09.870Z,4.40
2023-05-21T16:29:40.056Z,5.03
2023-05-21T16:32:10.757Z,4.40
2023-05-21T16:34:38.531Z,4.85
2023-05-21T16:37:09.989Z,4.25
2023-05-21T16:39:38.767Z,4.40
2023-05-21T16:42:07.147Z,4.18
2023-05-21T16:44:36.922Z,4.53
2023-05-21T16:47:05.682Z,4.60
2023-05-21T16:49:33.374Z,4.45
2023-05-21T16:52:03.424Z,4.40
2023-05-21T16:54:32.755Z,4.80
2023-05-21T16:57:01.646Z,4.30
2023-05-21T16:59:29.634Z,4.55
2023-05-21T17:01:57.665Z,4.40
2023-05-21T17:04:26.151Z,4.70
2023-05-21T17:06:56.292Z,4.95
2023-05-21T17:09:24.242Z,4.93
2023-05-21T17:11:53.547Z,4.82
2023-05-21T17:14:32.929Z,5.10
2023-05-21T17:17:02.871Z,4.72
2023-05-21T17:19:32.474Z,4.97
2023-05-21T17:22:00.493Z,4.93
2023-05-21T17:24:28.592Z,4.68
2023-05-21T17:26:58.241Z,5.60
2023-05-21T17:29:26.377Z,5.03
2023-05-21T17:31:54.447Z,5.03
2023-05-21T17:34:27.412Z,5.13
2023-05-21T17:36:55.639Z,4.85
2023-05-21T17:39:24.772Z,5.15
2023-05-21T17:41:53.064Z,4.72
2023-05-21T17:44:22.784Z,5.05
2023-05-21T17:46:52.326Z,5.27
2023-05-21T17:49:20.670Z,4.97
2023-05-21T17:51:49.212Z,5.82
2023-05-21T17:54:17.116Z,4.65
2023-05-21T17:56:46.520Z,5.25
2023-05-21T17:59:15.955Z,4.57
2023-05-21T18:01:45.018Z,4.60
2023-05-21T18:04:13.459Z,5.05
2023-05-21T18:06:41.735Z,4.53
2023-05-21T18:09:10.569Z,4.78
2023-05-21T18:11:38.660Z,4.60
2023-05-21T18:14:06.574Z,4.95
2023-05-21T18:16:34.619Z,5.32
2023-05-21T18:19:05.991Z,4.45
2023-05-21T18:21:35.536Z,4.40
2023-05-21T18:24:03.408Z,4.67
2023-05-21T18:26:31.533Z,4.57
2023-05-21T18:28:59.873Z,4.75
2023-05-21T18:31:28.794Z,4.88
2023-05-21T18:33:58.161Z,4.60
2023-05-21T18:36:27.781Z,4.47
2023-05-21T18:38:59.299Z,4.30
2023-05-21T18:41:27.222Z,4.82
2023-05-21T18:43:55.450Z,4.57
2023-05-21T18:46:24.077Z,5.43
2023-05-21T18:48:51.850Z,5.07
2023-05-21T18:51:19.829Z,4.20
2023-05-21T18:53:49.350Z,4.78
2023-05-21T18:56:18.227Z,4.82
2023-05-21T18:58:46.259Z,4.95
2023-05-21T19:01:14.309Z,4.73
2023-05-21T19:03:42.110Z,4.80
2023-05-21T19:06:10.777Z,4.15
2023-05-21T19:08:40.902Z,4.43
2023-05-21T19:11:12.244Z,4.95
2023-05-21T19:13:43.066Z,4.90
2023-05-21T19:16:11.459Z,4.68
2023-05-21T19:18:43.395Z,4.47
2023-05-21T19:21:11.514Z,4.53
2023-05-21T19:23:52.088Z,4.53
2023-05-21T19:26:23.276Z,5.40
2023-05-21T19:28:53.779Z,4.20
2023-05-21T19:31:23.328Z,4.53
2023-05-21T19:33:51.746Z,4.57
2023-05-21T19:36:21.745Z,5.03
2023-05-21T19:38:51.387Z,4.50
2023-05-21T19:41:26.059Z,4.68
2023-05-21T19:43:53.680Z,4.63
2023-05-21T19:46:21.800Z,5.13
2023-05-21T19:48:50.124Z,4.95
2023-05-21T19:51:18.764Z,4.80
2023-05-21T19:53:49.837Z,4.68
2023-05-21T19:56:17.875Z,5.07
2023-05-21T19:58:48.403Z,4.80
2023-05-21T20:01:17.900Z,4.60
2023-05-21T20:03:46.352Z,5.23
2023-05-21T20:06:20.011Z,5.05
2023-05-21T20:08:48.221Z,4.97
2023-05-21T20:11:16.682Z,4.85
2023-05-21T20:13:50.674Z,4.97
2023-05-21T20:16:20.226Z,4.97
2023-05-21T20:18:49.199Z,4.95
2023-05-21T20:21:20.357Z,4.63
2023-05-21T20:23:49.630Z,5.40
2023-05-21T20:26:18.931Z,4.72
2023-05-21T20:28:48.524Z,5.03
2023-05-21T20:31:17.296Z,5.13
2023-05-21T20:33:46.394Z,5.68
2023-05-21T20:36:15.523Z,5.50
2023-05-21T20:38:45.628Z,5.03
2023-05-21T20:41:14.774Z,5.70
2023-05-21T20:43:47.848Z,4.50
2023-05-21T20:46:20.717Z,4.70
2023-05-21T20:48:50.116Z,4.60
2023-05-21T20:51:18.346Z,4.68
2023-05-21T20:53:47.106Z,5.43
2023-05-21T20:56:23.896Z,5.07
2023-05-21T20:58:58.420Z,5.30
2023-05-21T21:01:30.753Z,5.13
2023-05-21T21:03:59.931Z,5.47
2023-05-21T21:06:30.155Z,4.97
2023-05-21T21:08:58.076Z,6.28
2023-05-21T21:11:26.830Z,6.68
2023-05-21T21:13:54.770Z,7.07
2023-05-21T21:16:22.972Z,7.30
2023-05-21T21:18:52.413Z,6.13
2023-05-21T21:21:21.295Z,6.93
2023-05-21T21:23:49.430Z,6.45
2023-05-21T21:26:17.748Z,6.40
2023-05-21T21:28:46.677Z,6.57
2023-05-21T21:31:17.468Z,6.90
2023-05-21T21:33:45.740Z,6.82
2023-05-21T21:36:15.621Z,6.50
2023-05-21T21:38:44.072Z,6.90
2023-05-21T21:41:12.177Z,6.47
2023-05-21T21:43:40.430Z,6.43
2023-05-21T21:46:08.244Z,6.30
2023-05-21T21:48:36.494Z,6.75
2023-05-21T21:51:04.809Z,6.18
2023-05-21T21:53:35.764Z,6.22
2023-05-21T21:56:03.993Z,6.60
2023-05-21T21:58:32.924Z,6.82
2023-05-21T22:01:00.883Z,6.38
2023-05-21T22:03:29.366Z,6.78
2023-05-21T22:05:57.303Z,6.43
2023-05-21T22:08:28.844Z,6.43
2023-05-21T22:10:58.828Z,6.22
2023-05-21T22:13:29.302Z,6.35
2023-05-21T22:15:58.546Z,6.20
2023-05-21T22:18:39.767Z,6.35
2023-05-21T22:21:10.343Z,6.37
2023-05-21T22:23:40.032Z,6.90
2023-05-21T22:26:10.367Z,6.00
2023-05-21T22:28:38.714Z,6.95
2023-05-21T22:31:07.087Z,6.95
2023-05-21T22:33:35.217Z,6.47
2023-05-21T22:36:03.176Z,6.10
2023-05-21T22:38:31.267Z,7.05
2023-05-21T22:41:01.475Z,6.80
2023-05-21T22:43:31.354Z,7.03
2023-05-21T22:46:02.886Z,6.23
2023-05-21T22:48:31.759Z,6.43
2023-05-21T22:51:01.885Z,6.18
2023-05-21T22:53:30.464Z,6.90
2023-05-21T22:55:58.399Z,6.95
2023-05-21T22:58:26.952Z,7.20
2023-05-21T23:00:56.236Z,6.88
2023-05-21T23:03:24.228Z,7.15
2023-05-21T23:05:52.293Z,7.05
2023-05-21T23:08:21.057Z,6.25
2023-05-21T23:10:49.285Z,7.20
2023-05-21T23:13:17.404Z,6.72
2023-05-21T23:15:48.715Z,6.82
2023-05-21T23:18:18.427Z,7.28
2023-05-21T23:20:46.552Z,6.47
2023-05-21T23:23:14.485Z,6.80
2023-05-21T23:25:42.854Z,6.72
2023-05-21T23:28:11.209Z,6.88
2023-05-21T23:30:39.321Z,7.00
2023-05-21T23:33:07.973Z,6.45
2023-05-21T23:35:37.511Z,6.50
2023-05-21T23:38:05.577Z,7.35
2023-05-21T23:40:33.608Z,6.55
2023-05-21T23:43:01.720Z,7.03
2023-05-21T23:45:29.652Z,7.10
2023-05-21T23:47:57.663Z,6.80
2023-05-21T23:50:26.446Z,7.40
2023-05-21T23:52:56.962Z,7.18
2023-05-21T23:55:25.157Z,6.85
2023-05-21T23:57:53.777Z,6.28
